sensor_id;sensor_type;location;lat;lon;timestamp;temperature;humidity
50738;DHT22;36703;48.154;17.126;2023-02-15T00:02:41;9.10;47.80
50738;DHT22;36703;48.154;17.126;2023-02-15T00:06:42;9.10;47.90
50738;DHT22;36703;48.154;17.126;2023-02-15T00:10:43;9.00;47.90
50738;DHT22;36703;48.154;17.126;2023-02-15T00:14:45;9.10;47.80
50738;DHT22;36703;48.154;17.126;2023-02-15T00:18:46;9.20;47.90
50738;DHT22;36703;48.154;17.126;2023-02-15T00:22:48;9.00;48.00
50738;DHT22;36703;48.154;17.126;2023-02-15T00:26:49;9.00;48.00
50738;DHT22;36703;48.154;17.126;2023-02-15T00:30:51;9.00;48.10
50738;DHT22;36703;48.154;17.126;2023-02-15T00:34:53;9.00;48.10
50738;DHT22;36703;48.154;17.126;2023-02-15T00:38:54;9.00;48.20
50738;DHT22;36703;48.154;17.126;2023-02-15T00:42:56;8.90;48.10
50738;DHT22;36703;48.154;17.126;2023-02-15T00:46:59;8.90;48.20
50738;DHT22;36703;48.154;17.126;2023-02-15T00:51:01;8.90;48.20
50738;DHT22;36703;48.154;17.126;2023-02-15T00:55:02;9.00;48.30
50738;DHT22;36703;48.154;17.126;2023-02-15T00:59:04;8.90;48.10
50738;DHT22;36703;48.154;17.126;2023-02-15T01:03:06;8.90;48.20
50738;DHT22;36703;48.154;17.126;2023-02-15T01:07:08;8.90;48.90
50738;DHT22;36703;48.154;17.126;2023-02-15T01:11:13;8.80;48.40
50738;DHT22;36703;48.154;17.126;2023-02-15T01:15:16;8.70;48.50
50738;DHT22;36703;48.154;17.126;2023-02-15T01:19:18;8.60;48.60
50738;DHT22;36703;48.154;17.126;2023-02-15T01:23:19;8.60;48.80
50738;DHT22;36703;48.154;17.126;2023-02-15T01:27:21;8.70;48.70
50738;DHT22;36703;48.154;17.126;2023-02-15T01:31:22;8.80;48.60
50738;DHT22;36703;48.154;17.126;2023-02-15T01:35:24;8.70;48.40
50738;DHT22;36703;48.154;17.126;2023-02-15T01:39:26;8.70;48.40
50738;DHT22;36703;48.154;17.126;2023-02-15T01:43:41;8.70;49.10
50738;DHT22;36703;48.154;17.126;2023-02-15T01:48:22;8.70;48.60
50738;DHT22;36703;48.154;17.126;2023-02-15T01:52:27;8.70;48.60
50738;DHT22;36703;48.154;17.126;2023-02-15T01:56:33;8.60;48.50
50738;DHT22;36703;48.154;17.126;2023-02-15T02:00:36;8.60;48.70
50738;DHT22;36703;48.154;17.126;2023-02-15T02:04:47;8.50;48.70
50738;DHT22;36703;48.154;17.126;2023-02-15T02:08:49;8.50;48.70
50738;DHT22;36703;48.154;17.126;2023-02-15T02:12:55;8.50;48.70
50738;DHT22;36703;48.154;17.126;2023-02-15T02:17:17;8.40;48.90
50738;DHT22;36703;48.154;17.126;2023-02-15T02:30:35;8.30;49.00
50738;DHT22;36703;48.154;17.126;2023-02-15T02:34:58;8.20;49.00
50738;DHT22;36703;48.154;17.126;2023-02-15T02:39:29;8.20;49.20
50738;DHT22;36703;48.154;17.126;2023-02-15T02:43:51;8.30;49.20
50738;DHT22;36703;48.154;17.126;2023-02-15T02:48:00;8.30;49.10
50738;DHT22;36703;48.154;17.126;2023-02-15T02:52:39;8.30;49.00
50738;DHT22;36703;48.154;17.126;2023-02-15T02:56:48;8.30;49.10
50738;DHT22;36703;48.154;17.126;2023-02-15T03:01:01;8.20;49.00
50738;DHT22;36703;48.154;17.126;2023-02-15T03:05:15;8.10;49.20
50738;DHT22;36703;48.154;17.126;2023-02-15T03:09:42;8.20;49.30
50738;DHT22;36703;48.154;17.126;2023-02-15T03:13:49;8.20;49.20
50738;DHT22;36703;48.154;17.126;2023-02-15T03:17:56;8.20;49.20
50738;DHT22;36703;48.154;17.126;2023-02-15T03:22:13;8.20;49.10
50738;DHT22;36703;48.154;17.126;2023-02-15T03:26:17;8.20;49.00
50738;DHT22;36703;48.154;17.126;2023-02-15T03:30:21;8.10;49.00
50738;DHT22;36703;48.154;17.126;2023-02-15T03:34:23;8.20;49.00
50738;DHT22;36703;48.154;17.126;2023-02-15T03:38:36;8.20;49.00
50738;DHT22;36703;48.154;17.126;2023-02-15T03:42:42;8.10;49.00
50738;DHT22;36703;48.154;17.126;2023-02-15T03:46:50;8.10;49.00
50738;DHT22;36703;48.154;17.126;2023-02-15T03:50:59;8.10;48.90
50738;DHT22;36703;48.154;17.126;2023-02-15T03:55:21;8.10;49.00
50738;DHT22;36703;48.154;17.126;2023-02-15T03:59:23;8.00;48.90
50738;DHT22;36703;48.154;17.126;2023-02-15T04:07:57;7.90;48.90
50738;DHT22;36703;48.154;17.126;2023-02-15T04:11:59;7.90;49.00
50738;DHT22;36703;48.154;17.126;2023-02-15T04:16:00;7.90;49.00
50738;DHT22;36703;48.154;17.126;2023-02-15T04:20:05;7.90;49.00
50738;DHT22;36703;48.154;17.126;2023-02-15T04:24:25;7.90;49.00
50738;DHT22;36703;48.154;17.126;2023-02-15T04:28:45;8.00;49.10
50738;DHT22;36703;48.154;17.126;2023-02-15T04:32:47;8.00;49.00
50738;DHT22;36703;48.154;17.126;2023-02-15T04:36:48;8.00;49.00
50738;DHT22;36703;48.154;17.126;2023-02-15T04:40:52;8.00;49.00
50738;DHT22;36703;48.154;17.126;2023-02-15T04:44:53;8.00;49.00
50738;DHT22;36703;48.154;17.126;2023-02-15T04:48:55;8.00;49.00
50738;DHT22;36703;48.154;17.126;2023-02-15T04:52:57;8.00;49.00
50738;DHT22;36703;48.154;17.126;2023-02-15T04:56:59;7.90;49.00
50738;DHT22;36703;48.154;17.126;2023-02-15T05:01:01;7.90;49.20
50738;DHT22;36703;48.154;17.126;2023-02-15T05:05:03;7.80;49.30
50738;DHT22;36703;48.154;17.126;2023-02-15T05:09:04;7.80;49.40
50738;DHT22;36703;48.154;17.126;2023-02-15T05:13:06;7.80;49.40
50738;DHT22;36703;48.154;17.126;2023-02-15T05:17:07;7.90;49.40
50738;DHT22;36703;48.154;17.126;2023-02-15T05:21:09;7.80;49.30
50738;DHT22;36703;48.154;17.126;2023-02-15T05:25:10;7.80;49.30
50738;DHT22;36703;48.154;17.126;2023-02-15T05:29:30;7.70;49.30
50738;DHT22;36703;48.154;17.126;2023-02-15T05:33:32;7.60;49.40
50738;DHT22;36703;48.154;17.126;2023-02-15T05:37:34;7.60;49.40
50738;DHT22;36703;48.154;17.126;2023-02-15T05:41:36;7.60;49.40
50738;DHT22;36703;48.154;17.126;2023-02-15T05:45:37;7.60;49.50
50738;DHT22;36703;48.154;17.126;2023-02-15T05:49:38;7.60;49.40
50738;DHT22;36703;48.154;17.126;2023-02-15T05:53:40;7.50;49.50
50738;DHT22;36703;48.154;17.126;2023-02-15T05:57:41;7.40;49.60
50738;DHT22;36703;48.154;17.126;2023-02-15T06:01:43;7.30;49.60
50738;DHT22;36703;48.154;17.126;2023-02-15T06:05:44;7.30;49.70
50738;DHT22;36703;48.154;17.126;2023-02-15T06:09:46;7.40;49.60
50738;DHT22;36703;48.154;17.126;2023-02-15T06:13:47;7.30;49.50
50738;DHT22;36703;48.154;17.126;2023-02-15T06:17:49;7.30;49.70
50738;DHT22;36703;48.154;17.126;2023-02-15T06:21:50;7.20;49.70
50738;DHT22;36703;48.154;17.126;2023-02-15T06:25:51;7.10;49.80
50738;DHT22;36703;48.154;17.126;2023-02-15T06:29:53;7.00;49.80
50738;DHT22;36703;48.154;17.126;2023-02-15T06:33:54;7.00;50.00
50738;DHT22;36703;48.154;17.126;2023-02-15T06:38:02;6.90;50.00
50738;DHT22;36703;48.154;17.126;2023-02-15T06:42:03;6.90;50.00
50738;DHT22;36703;48.154;17.126;2023-02-15T06:46:04;6.90;50.20
50738;DHT22;36703;48.154;17.126;2023-02-15T06:50:07;6.90;50.10
50738;DHT22;36703;48.154;17.126;2023-02-15T06:54:09;6.90;50.10
50738;DHT22;36703;48.154;17.126;2023-02-15T06:58:10;7.00;50.30
50738;DHT22;36703;48.154;17.126;2023-02-15T07:02:12;7.00;50.30
50738;DHT22;36703;48.154;17.126;2023-02-15T07:06:14;7.00;50.20
50738;DHT22;36703;48.154;17.126;2023-02-15T07:10:16;7.10;50.20
50738;DHT22;36703;48.154;17.126;2023-02-15T07:14:17;7.10;50.20
50738;DHT22;36703;48.154;17.126;2023-02-15T07:18:19;7.20;50.30
50738;DHT22;36703;48.154;17.126;2023-02-15T07:22:21;7.20;50.30
50738;DHT22;36703;48.154;17.126;2023-02-15T07:26:23;7.30;50.30
50738;DHT22;36703;48.154;17.126;2023-02-15T07:30:24;7.30;50.30
50738;DHT22;36703;48.154;17.126;2023-02-15T07:34:27;7.40;50.30
50738;DHT22;36703;48.154;17.126;2023-02-15T07:38:34;7.50;50.30
50738;DHT22;36703;48.154;17.126;2023-02-15T07:42:37;7.60;50.30
50738;DHT22;36703;48.154;17.126;2023-02-15T07:46:38;7.60;50.30
50738;DHT22;36703;48.154;17.126;2023-02-15T07:50:40;7.70;50.20
50738;DHT22;36703;48.154;17.126;2023-02-15T07:54:41;7.70;50.00
50738;DHT22;36703;48.154;17.126;2023-02-15T07:58:43;7.80;50.10
50738;DHT22;36703;48.154;17.126;2023-02-15T08:02:55;7.90;50.00
50738;DHT22;36703;48.154;17.126;2023-02-15T08:07:14;7.90;49.80
50738;DHT22;36703;48.154;17.126;2023-02-15T08:15:31;7.90;50.00
50738;DHT22;36703;48.154;17.126;2023-02-15T08:19:33;7.80;50.00
50738;DHT22;36703;48.154;17.126;2023-02-15T08:23:35;7.70;50.10
50738;DHT22;36703;48.154;17.126;2023-02-15T08:27:37;7.70;50.20
50738;DHT22;36703;48.154;17.126;2023-02-15T08:31:38;7.70;50.20
50738;DHT22;36703;48.154;17.126;2023-02-15T08:35:42;7.70;50.20
50738;DHT22;36703;48.154;17.126;2023-02-15T08:39:43;7.80;50.30
50738;DHT22;36703;48.154;17.126;2023-02-15T08:43:46;7.80;50.30
50738;DHT22;36703;48.154;17.126;2023-02-15T08:47:49;7.80;50.20
50738;DHT22;36703;48.154;17.126;2023-02-15T08:51:50;7.70;50.20
50738;DHT22;36703;48.154;17.126;2023-02-15T08:55:56;7.80;50.40
50738;DHT22;36703;48.154;17.126;2023-02-15T08:59:58;7.80;50.30
50738;DHT22;36703;48.154;17.126;2023-02-15T09:04:02;7.90;50.30
50738;DHT22;36703;48.154;17.126;2023-02-15T09:08:10;8.00;50.20
50738;DHT22;36703;48.154;17.126;2023-02-15T09:12:12;8.00;50.10
50738;DHT22;36703;48.154;17.126;2023-02-15T09:16:13;8.10;50.10
50738;DHT22;36703;48.154;17.126;2023-02-15T09:20:17;8.20;50.00
50738;DHT22;36703;48.154;17.126;2023-02-15T09:24:19;8.20;50.60
50738;DHT22;36703;48.154;17.126;2023-02-15T09:28:20;8.20;50.10
50738;DHT22;36703;48.154;17.126;2023-02-15T09:32:22;8.20;50.00
50738;DHT22;36703;48.154;17.126;2023-02-15T09:36:38;8.20;50.00
50738;DHT22;36703;48.154;17.126;2023-02-15T09:40:49;8.20;50.00
50738;DHT22;36703;48.154;17.126;2023-02-15T09:45:30;8.20;50.10
50738;DHT22;36703;48.154;17.126;2023-02-15T09:54:04;8.10;50.30
50738;DHT22;36703;48.154;17.126;2023-02-15T09:58:20;8.20;50.40
50738;DHT22;36703;48.154;17.126;2023-02-15T10:25:04;8.30;50.90
50738;DHT22;36703;48.154;17.126;2023-02-15T10:51:44;8.80;50.00
50738;DHT22;36703;48.154;17.126;2023-02-15T11:04:37;8.80;50.20
50738;DHT22;36703;48.154;17.126;2023-02-15T11:08:54;8.80;50.20
50738;DHT22;36703;48.154;17.126;2023-02-15T11:13:04;8.70;50.20
50738;DHT22;36703;48.154;17.126;2023-02-15T11:17:14;8.80;50.30
50738;DHT22;36703;48.154;17.126;2023-02-15T11:21:34;8.80;50.30
50738;DHT22;36703;48.154;17.126;2023-02-15T11:25:40;8.80;50.30
50738;DHT22;36703;48.154;17.126;2023-02-15T11:30:05;8.70;50.30
50738;DHT22;36703;48.154;17.126;2023-02-15T11:34:35;8.60;50.50
50738;DHT22;36703;48.154;17.126;2023-02-15T11:38:41;8.70;50.60
50738;DHT22;36703;48.154;17.126;2023-02-15T11:42:47;8.70;50.40
50738;DHT22;36703;48.154;17.126;2023-02-15T11:46:51;8.80;50.50
50738;DHT22;36703;48.154;17.126;2023-02-15T11:50:52;8.80;50.40
50738;DHT22;36703;48.154;17.126;2023-02-15T11:54:54;8.80;50.50
50738;DHT22;36703;48.154;17.126;2023-02-15T11:58:59;8.80;50.50
50738;DHT22;36703;48.154;17.126;2023-02-15T12:03:22;8.80;50.40
50738;DHT22;36703;48.154;17.126;2023-02-15T12:07:36;8.70;50.60
50738;DHT22;36703;48.154;17.126;2023-02-15T12:11:40;8.70;50.60
50738;DHT22;36703;48.154;17.126;2023-02-15T12:15:45;8.70;50.60
50738;DHT22;36703;48.154;17.126;2023-02-15T12:19:51;8.80;51.20
50738;DHT22;36703;48.154;17.126;2023-02-15T12:24:20;8.90;51.20
50738;DHT22;36703;48.154;17.126;2023-02-15T12:28:41;8.90;50.40
50738;DHT22;36703;48.154;17.126;2023-02-15T12:32:54;8.90;50.50
50738;DHT22;36703;48.154;17.126;2023-02-15T12:37:07;8.90;50.50
50738;DHT22;36703;48.154;17.126;2023-02-15T12:41:23;8.90;50.40
50738;DHT22;36703;48.154;17.126;2023-02-15T12:45:28;9.10;50.40
50738;DHT22;36703;48.154;17.126;2023-02-15T12:49:33;9.10;50.30
50738;DHT22;36703;48.154;17.126;2023-02-15T12:53:36;9.10;50.20
50738;DHT22;36703;48.154;17.126;2023-02-15T12:57:39;9.10;50.30
50738;DHT22;36703;48.154;17.126;2023-02-15T13:01:41;9.20;50.30
50738;DHT22;36703;48.154;17.126;2023-02-15T13:05:45;9.30;50.20
50738;DHT22;36703;48.154;17.126;2023-02-15T13:09:50;9.30;50.00
50738;DHT22;36703;48.154;17.126;2023-02-15T13:14:03;9.30;50.00
50738;DHT22;36703;48.154;17.126;2023-02-15T13:18:41;9.30;50.10
50738;DHT22;36703;48.154;17.126;2023-02-15T13:22:46;9.30;50.00
50738;DHT22;36703;48.154;17.126;2023-02-15T13:26:49;9.30;50.00
50738;DHT22;36703;48.154;17.126;2023-02-15T13:30:51;9.30;50.00
50738;DHT22;36703;48.154;17.126;2023-02-15T13:35:00;9.30;49.90
50738;DHT22;36703;48.154;17.126;2023-02-15T13:39:17;9.30;50.00
50738;DHT22;36703;48.154;17.126;2023-02-15T13:52:21;9.00;50.30
50738;DHT22;36703;48.154;17.126;2023-02-15T13:56:47;9.00;50.40
50738;DHT22;36703;48.154;17.126;2023-02-15T14:19:35;9.10;50.40
50738;DHT22;36703;48.154;17.126;2023-02-15T14:24:30;9.20;50.50
50738;DHT22;36703;48.154;17.126;2023-02-15T14:28:55;9.20;50.50
50738;DHT22;36703;48.154;17.126;2023-02-15T14:33:07;9.10;50.50
50738;DHT22;36703;48.154;17.126;2023-02-15T14:37:23;9.10;50.60
50738;DHT22;36703;48.154;17.126;2023-02-15T14:41:42;9.10;50.70
50738;DHT22;36703;48.154;17.126;2023-02-15T14:50:44;9.10;50.60
50738;DHT22;36703;48.154;17.126;2023-02-15T15:02:56;9.20;50.60
50738;DHT22;36703;48.154;17.126;2023-02-15T15:07:23;9.30;50.60
50738;DHT22;36703;48.154;17.126;2023-02-15T15:23:54;9.20;50.70
50738;DHT22;36703;48.154;17.126;2023-02-15T15:27:57;9.30;50.70
50738;DHT22;36703;48.154;17.126;2023-02-15T15:32:00;9.30;51.30
50738;DHT22;36703;48.154;17.126;2023-02-15T15:49:58;9.40;50.60
50738;DHT22;36703;48.154;17.126;2023-02-15T15:54:02;9.40;50.50
50738;DHT22;36703;48.154;17.126;2023-02-15T15:58:07;9.30;50.50
50738;DHT22;36703;48.154;17.126;2023-02-15T16:02:16;9.30;50.60
50738;DHT22;36703;48.154;17.126;2023-02-15T16:06:37;9.30;50.60
50738;DHT22;36703;48.154;17.126;2023-02-15T16:10:40;9.20;50.60
50738;DHT22;36703;48.154;17.126;2023-02-15T16:14:42;9.20;50.60
50738;DHT22;36703;48.154;17.126;2023-02-15T16:18:46;9.20;50.60
50738;DHT22;36703;48.154;17.126;2023-02-15T16:22:53;9.30;50.60
50738;DHT22;36703;48.154;17.126;2023-02-15T16:27:14;9.30;50.60
50738;DHT22;36703;48.154;17.126;2023-02-15T16:31:39;9.20;50.60
50738;DHT22;36703;48.154;17.126;2023-02-15T16:35:56;9.20;50.60
50738;DHT22;36703;48.154;17.126;2023-02-15T16:39:59;9.10;50.60
50738;DHT22;36703;48.154;17.126;2023-02-15T16:44:06;9.00;50.80
50738;DHT22;36703;48.154;17.126;2023-02-15T16:48:19;9.00;51.00
50738;DHT22;36703;48.154;17.126;2023-02-15T16:52:25;9.00;51.10
50738;DHT22;36703;48.154;17.126;2023-02-15T16:56:29;9.00;51.00
50738;DHT22;36703;48.154;17.126;2023-02-15T17:00:35;8.90;51.00
50738;DHT22;36703;48.154;17.126;2023-02-15T17:04:38;8.90;51.10
50738;DHT22;36703;48.154;17.126;2023-02-15T17:08:44;8.80;51.20
50738;DHT22;36703;48.154;17.126;2023-02-15T17:12:47;8.90;51.30
50738;DHT22;36703;48.154;17.126;2023-02-15T17:17:07;8.80;51.20
50738;DHT22;36703;48.154;17.126;2023-02-15T17:21:17;8.80;51.30
50738;DHT22;36703;48.154;17.126;2023-02-15T17:25:25;8.80;51.30
50738;DHT22;36703;48.154;17.126;2023-02-15T17:29:36;8.70;51.30
50738;DHT22;36703;48.154;17.126;2023-02-15T17:33:39;8.70;51.40
50738;DHT22;36703;48.154;17.126;2023-02-15T17:37:42;8.60;51.40
50738;DHT22;36703;48.154;17.126;2023-02-15T17:41:45;8.60;51.40
50738;DHT22;36703;48.154;17.126;2023-02-15T17:45:49;8.60;51.30
50738;DHT22;36703;48.154;17.126;2023-02-15T17:49:52;8.60;51.30
50738;DHT22;36703;48.154;17.126;2023-02-15T17:53:54;8.60;51.50
50738;DHT22;36703;48.154;17.126;2023-02-15T17:58:16;8.50;51.40
50738;DHT22;36703;48.154;17.126;2023-02-15T18:02:19;8.50;51.40
50738;DHT22;36703;48.154;17.126;2023-02-15T18:06:42;8.50;51.40
50738;DHT22;36703;48.154;17.126;2023-02-15T18:11:02;8.90;51.60
50738;DHT22;36703;48.154;17.126;2023-02-15T18:15:23;8.40;51.50
50738;DHT22;36703;48.154;17.126;2023-02-15T18:19:25;8.40;51.50
50738;DHT22;36703;48.154;17.126;2023-02-15T18:23:27;8.40;51.50
50738;DHT22;36703;48.154;17.126;2023-02-15T18:27:28;8.40;51.60
50738;DHT22;36703;48.154;17.126;2023-02-15T18:31:30;8.60;51.60
50738;DHT22;36703;48.154;17.126;2023-02-15T18:35:32;8.40;51.30
50738;DHT22;36703;48.154;17.126;2023-02-15T18:39:39;8.40;51.30
50738;DHT22;36703;48.154;17.126;2023-02-15T18:43:47;8.40;51.40
50738;DHT22;36703;48.154;17.126;2023-02-15T18:47:49;8.40;51.40
50738;DHT22;36703;48.154;17.126;2023-02-15T18:51:51;8.40;51.50
50738;DHT22;36703;48.154;17.126;2023-02-15T18:55:53;8.30;51.50
50738;DHT22;36703;48.154;17.126;2023-02-15T18:59:55;8.30;51.50
50738;DHT22;36703;48.154;17.126;2023-02-15T19:03:57;8.30;51.50
50738;DHT22;36703;48.154;17.126;2023-02-15T19:07:58;8.20;51.50
50738;DHT22;36703;48.154;17.126;2023-02-15T19:12:01;8.20;51.60
50738;DHT22;36703;48.154;17.126;2023-02-15T19:16:02;8.20;51.50
50738;DHT22;36703;48.154;17.126;2023-02-15T19:20:08;8.20;51.50
50738;DHT22;36703;48.154;17.126;2023-02-15T19:24:18;8.20;51.50
50738;DHT22;36703;48.154;17.126;2023-02-15T19:28:29;8.20;51.60
50738;DHT22;36703;48.154;17.126;2023-02-15T19:32:32;8.10;51.60
50738;DHT22;36703;48.154;17.126;2023-02-15T19:36:34;8.20;51.60
50738;DHT22;36703;48.154;17.126;2023-02-15T19:40:35;8.20;51.60
50738;DHT22;36703;48.154;17.126;2023-02-15T19:44:37;8.10;51.50
50738;DHT22;36703;48.154;17.126;2023-02-15T19:48:43;8.10;51.60
50738;DHT22;36703;48.154;17.126;2023-02-15T19:52:45;8.00;51.80
50738;DHT22;36703;48.154;17.126;2023-02-15T19:56:47;8.00;51.70
50738;DHT22;36703;48.154;17.126;2023-02-15T20:00:50;8.00;51.70
50738;DHT22;36703;48.154;17.126;2023-02-15T20:04:51;8.00;51.80
50738;DHT22;36703;48.154;17.126;2023-02-15T20:08:53;8.00;51.80
50738;DHT22;36703;48.154;17.126;2023-02-15T20:12:56;7.90;52.40
50738;DHT22;36703;48.154;17.126;2023-02-15T20:16:58;8.00;51.80
50738;DHT22;36703;48.154;17.126;2023-02-15T20:21:00;7.90;51.80
50738;DHT22;36703;48.154;17.126;2023-02-15T20:25:03;8.00;51.80
50738;DHT22;36703;48.154;17.126;2023-02-15T20:29:05;7.90;51.80
50738;DHT22;36703;48.154;17.126;2023-02-15T20:33:07;7.90;51.80
50738;DHT22;36703;48.154;17.126;2023-02-15T20:37:16;7.90;51.90
50738;DHT22;36703;48.154;17.126;2023-02-15T20:41:22;7.90;51.90
50738;DHT22;36703;48.154;17.126;2023-02-15T20:45:36;7.80;51.80
50738;DHT22;36703;48.154;17.126;2023-02-15T20:49:37;7.90;51.90
50738;DHT22;36703;48.154;17.126;2023-02-15T20:53:39;7.90;52.00
50738;DHT22;36703;48.154;17.126;2023-02-15T20:57:40;8.10;52.10
50738;DHT22;36703;48.154;17.126;2023-02-15T21:01:42;7.90;51.90
50738;DHT22;36703;48.154;17.126;2023-02-15T21:05:43;7.90;52.00
50738;DHT22;36703;48.154;17.126;2023-02-15T21:09:49;7.90;52.00
50738;DHT22;36703;48.154;17.126;2023-02-15T21:13:52;7.80;51.90
50738;DHT22;36703;48.154;17.126;2023-02-15T21:17:55;7.90;51.90
50738;DHT22;36703;48.154;17.126;2023-02-15T21:21:58;7.80;51.90
50738;DHT22;36703;48.154;17.126;2023-02-15T21:26:01;7.70;52.00
50738;DHT22;36703;48.154;17.126;2023-02-15T21:30:12;7.70;52.10
50738;DHT22;36703;48.154;17.126;2023-02-15T21:34:17;7.60;52.80
50738;DHT22;36703;48.154;17.126;2023-02-15T21:38:21;7.60;52.20
50738;DHT22;36703;48.154;17.126;2023-02-15T21:42:24;7.60;52.20
50738;DHT22;36703;48.154;17.126;2023-02-15T21:46:43;7.60;52.20
50738;DHT22;36703;48.154;17.126;2023-02-15T21:51:03;7.50;52.10
50738;DHT22;36703;48.154;17.126;2023-02-15T21:55:23;7.40;52.10
50738;DHT22;36703;48.154;17.126;2023-02-15T21:59:25;7.10;52.20
50738;DHT22;36703;48.154;17.126;2023-02-15T22:03:45;7.10;52.40
50738;DHT22;36703;48.154;17.126;2023-02-15T22:07:47;7.10;52.40
50738;DHT22;36703;48.154;17.126;2023-02-15T22:11:49;7.00;52.40
50738;DHT22;36703;48.154;17.126;2023-02-15T22:15:51;6.90;52.50
50738;DHT22;36703;48.154;17.126;2023-02-15T22:19:52;6.90;52.50
50738;DHT22;36703;48.154;17.126;2023-02-15T22:23:55;6.90;52.60
50738;DHT22;36703;48.154;17.126;2023-02-15T22:27:57;6.90;53.10
50738;DHT22;36703;48.154;17.126;2023-02-15T22:31:59;6.90;52.40
50738;DHT22;36703;48.154;17.126;2023-02-15T22:36:00;6.80;52.40
50738;DHT22;36703;48.154;17.126;2023-02-15T22:40:02;6.80;52.50
50738;DHT22;36703;48.154;17.126;2023-02-15T22:44:04;6.80;52.60
50738;DHT22;36703;48.154;17.126;2023-02-15T22:48:09;6.70;52.70
50738;DHT22;36703;48.154;17.126;2023-02-15T22:52:14;6.80;52.70
50738;DHT22;36703;48.154;17.126;2023-02-15T22:56:19;6.80;52.70
50738;DHT22;36703;48.154;17.126;2023-02-15T23:00:28;6.90;52.80
50738;DHT22;36703;48.154;17.126;2023-02-15T23:04:37;6.90;52.80
50738;DHT22;36703;48.154;17.126;2023-02-15T23:08:39;6.90;52.80
50738;DHT22;36703;48.154;17.126;2023-02-15T23:12:41;6.90;52.90
50738;DHT22;36703;48.154;17.126;2023-02-15T23:17:00;6.90;52.90
50738;DHT22;36703;48.154;17.126;2023-02-15T23:21:09;6.90;52.80
50738;DHT22;36703;48.154;17.126;2023-02-15T23:25:18;6.90;53.00
50738;DHT22;36703;48.154;17.126;2023-02-15T23:29:24;6.90;53.00
50738;DHT22;36703;48.154;17.126;2023-02-15T23:33:31;7.00;53.00
50738;DHT22;36703;48.154;17.126;2023-02-15T23:37:34;6.90;53.10
50738;DHT22;36703;48.154;17.126;2023-02-15T23:41:35;6.90;53.10
50738;DHT22;36703;48.154;17.126;2023-02-15T23:45:37;7.00;53.80
50738;DHT22;36703;48.154;17.126;2023-02-15T23:49:39;7.00;53.10
50738;DHT22;36703;48.154;17.126;2023-02-15T23:53:41;7.00;53.10
50738;DHT22;36703;48.154;17.126;2023-02-15T23:57:43;7.10;53.20
